Time;durP1;ratioP1;P1;durP2;ratioP2;P2;SDS_P1;SDS_P2;PMS_P1;PMS_P2;Temp;Humidity;BMP_temperature;BMP_pressure;BME280_temperature;BME280_humidity;BME280_pressure;Samples;Min_cycle;Max_cycle;Signal;HPM_P1;HPM_P2
2022/11/11 00:01:10;;;;;;;7.55;3.55;;;9.20;99.90;;;;;;5072689;28;20288;-54
2022/11/11 00:03:36;;;;;;;6.85;3.10;;;9.20;99.90;;;;;;5072689;28;20660;-54
2022/11/11 00:06:07;;;;;;;8.85;3.08;;;9.30;99.90;;;;;;5072679;28;20170;-52
2022/11/11 00:08:33;;;;;;;9.82;3.55;;;9.20;99.90;;;;;;5072646;28;20519;-51
2022/11/11 00:11:02;;;;;;;7.93;3.20;;;9.20;99.90;;;;;;5072776;28;20212;-51
2022/11/11 00:13:29;;;;;;;5.45;3.10;;;9.20;99.90;;;;;;5072770;28;20177;-53
2022/11/11 00:15:55;;;;;;;8.30;3.13;;;9.10;99.90;;;;;;5072472;28;20219;-51
2022/11/11 00:26:34;;;;;;;6.90;3.65;;;9.10;99.90;;;;;;5072230;28;20676;-52
2022/11/11 00:29:00;;;;;;;9.75;4.78;;;9.00;99.90;;;;;;5072248;28;20162;-49
2022/11/11 00:31:25;;;;;;;5.85;3.40;;;9.00;99.90;;;;;;5072197;28;20223;-52
2022/11/11 00:33:52;;;;;;;11.25;4.55;;;9.00;99.90;;;;;;5072129;28;20162;-51
2022/11/11 00:36:18;;;;;;;8.88;3.92;;;8.90;99.90;;;;;;5071997;28;20711;-51
2022/11/11 00:38:48;;;;;;;6.07;3.50;;;9.00;99.90;;;;;;5072758;28;20174;-53
2022/11/11 00:41:19;;;;;;;6.57;3.28;;;8.90;99.90;;;;;;5072609;28;20206;-53
2022/11/11 00:43:45;;;;;;;7.95;3.45;;;8.90;99.90;;;;;;5072558;28;20170;-52
2022/11/11 00:51:41;;;;;;;6.68;3.63;;;8.90;99.90;;;;;;5072031;28;20205;-52
2022/11/11 00:54:07;;;;;;;6.03;3.55;;;8.80;99.90;;;;;;5071811;28;20197;-51
2022/11/11 00:56:35;;;;;;;10.38;3.42;;;8.80;99.90;;;;;;5071857;28;20173;-52
2022/11/11 00:59:01;;;;;;;7.30;3.75;;;8.70;99.90;;;;;;5071606;28;20594;-53
2022/11/11 01:01:27;;;;;;;4.65;3.90;;;8.70;99.90;;;;;;5071806;28;20262;-51
2022/11/11 01:03:52;;;;;;;5.28;3.35;;;8.70;99.90;;;;;;5071388;28;20166;-51
2022/11/11 01:06:18;;;;;;;7.20;3.75;;;8.70;99.90;;;;;;5071602;28;20162;-51
2022/11/11 01:08:43;;;;;;;6.15;3.42;;;8.70;99.90;;;;;;5072080;28;20166;-51
2022/11/11 01:11:17;;;;;;;6.00;3.95;;;8.70;99.90;;;;;;5071671;28;20170;-51
2022/11/11 01:13:43;;;;;;;5.25;3.80;;;8.70;99.90;;;;;;5072277;28;20190;-54
2022/11/11 01:16:17;;;;;;;10.98;3.70;;;8.70;99.90;;;;;;5071957;28;20170;-54
2022/11/11 01:18:43;;;;;;;7.70;4.18;;;8.70;99.90;;;;;;5072021;28;20166;-52
2022/11/11 01:21:18;;;;;;;9.45;3.80;;;8.60;99.90;;;;;;5053719;28;20653;-53
2022/11/11 01:23:47;;;;;;;4.85;3.72;;;8.60;99.90;;;;;;5071937;28;20165;-54
2022/11/11 01:26:20;;;;;;;6.80;3.90;;;8.60;99.90;;;;;;5072026;28;20503;-52
2022/11/11 01:28:53;;;;;;;9.07;3.85;;;8.60;99.90;;;;;;5071561;28;20158;-51
2022/11/11 01:31:20;;;;;;;8.85;4.35;;;8.50;99.90;;;;;;5071699;28;20196;-53
2022/11/11 01:33:46;;;;;;;6.00;3.20;;;8.60;99.90;;;;;;5074825;28;20173;-54
2022/11/11 01:36:18;;;;;;;10.93;4.72;;;8.60;99.90;;;;;;5075902;28;20174;-52
2022/11/11 01:38:47;;;;;;;13.18;5.28;;;8.60;99.90;;;;;;5075775;28;20166;-54
2022/11/11 01:41:33;;;;;;;9.45;4.03;;;8.60;99.90;;;;;;5075665;28;20672;-54
2022/11/11 01:44:11;;;;;;;12.82;4.38;;;8.60;99.90;;;;;;5060441;28;20268;-51
2022/11/11 01:46:41;;;;;;;9.65;3.88;;;8.60;99.90;;;;;;5075585;28;20211;-53
2022/11/11 01:49:44;;;;;;;7.18;3.65;;;8.60;99.90;;;;;;5075297;28;20162;-51
2022/11/11 01:52:30;;;;;;;7.53;3.60;;;8.50;99.90;;;;;;5075277;28;20628;-51
2022/11/11 01:55:14;;;;;;;5.45;3.80;;;8.50;99.90;;;;;;5075198;28;20162;-52
2022/11/11 01:57:44;;;;;;;9.27;3.92;;;8.50;99.90;;;;;;5075100;28;20177;-51
2022/11/11 02:00:14;;;;;;;6.00;4.25;;;8.40;99.90;;;;;;5074788;28;20225;-53
2022/11/11 02:02:48;;;;;;;7.38;3.83;;;8.40;99.90;;;;;;5075072;28;20162;-51
2022/11/11 02:08:33;;;;;;;10.73;4.40;;;8.40;99.90;;;;;;5075287;28;20219;-52
2022/11/11 02:11:05;;;;;;;10.60;3.38;;;8.40;99.90;;;;;;5074894;28;20166;-54
2022/11/11 02:16:20;;;;;;;5.20;3.60;;;8.30;99.90;;;;;;5075128;28;20219;-54
2022/11/11 02:18:45;;;;;;;6.20;3.58;;;8.20;99.90;;;;;;5075067;28;20162;-52
2022/11/11 02:21:17;;;;;;;5.20;3.83;;;8.30;99.90;;;;;;5074960;28;20244;-53
2022/11/11 02:24:12;;;;;;;6.55;3.80;;;8.40;99.90;;;;;;5075097;28;20166;-52
2022/11/11 02:26:38;;;;;;;5.20;3.95;;;8.30;99.90;;;;;;5069461;28;20264;-53
2022/11/11 02:29:10;;;;;;;9.68;3.90;;;8.20;99.90;;;;;;5074594;28;20200;-51
2022/11/11 02:31:36;;;;;;;9.25;4.70;;;8.20;99.90;;;;;;5074529;28;20170;-51
2022/11/11 02:34:02;;;;;;;6.07;4.20;;;8.20;99.90;;;;;;5074389;28;20188;-54
2022/11/11 02:36:27;;;;;;;6.28;4.47;;;8.30;99.90;;;;;;5074417;28;20170;-50
2022/11/11 02:38:53;;;;;;;6.88;4.60;;;8.30;99.90;;;;;;5074344;28;20181;-52
2022/11/11 02:44:03;;;;;;;9.68;4.18;;;8.20;99.90;;;;;;5073484;28;20208;-51
2022/11/11 02:46:29;;;;;;;7.30;4.13;;;8.20;99.90;;;;;;5074448;28;20163;-51
2022/11/11 02:48:54;;;;;;;7.13;3.88;;;8.30;99.90;;;;;;5074373;28;20174;-51
2022/11/11 02:51:20;;;;;;;8.68;4.75;;;8.10;99.90;;;;;;5074130;28;20173;-52
2022/11/11 02:53:45;;;;;;;9.60;5.38;;;8.00;99.90;;;;;;5074469;28;20244;-52
2022/11/11 02:56:11;;;;;;;8.02;4.57;;;8.00;99.90;;;;;;5074468;28;20181;-52
2022/11/11 02:58:36;;;;;;;5.35;4.75;;;8.10;99.90;;;;;;5073787;28;20210;-51
2022/11/11 03:01:02;;;;;;;7.72;4.82;;;8.00;99.90;;;;;;5073909;28;20239;-51
2022/11/11 03:03:27;;;;;;;8.10;4.28;;;8.00;99.90;;;;;;5073900;28;20526;-51
2022/11/11 03:05:53;;;;;;;10.50;4.57;;;8.00;99.90;;;;;;5073881;28;20176;-51
2022/11/11 03:08:19;;;;;;;7.47;4.95;;;7.90;99.90;;;;;;5073808;28;20162;-51
2022/11/11 03:10:44;;;;;;;8.15;5.68;;;8.00;99.90;;;;;;5074130;28;20158;-53
2022/11/11 03:13:10;;;;;;;7.60;5.05;;;8.00;99.90;;;;;;5073753;28;20169;-52
2022/11/11 03:15:35;;;;;;;10.30;5.70;;;8.00;99.90;;;;;;5073699;28;20192;-51
2022/11/11 03:18:01;;;;;;;9.60;5.57;;;7.90;99.90;;;;;;5073640;28;20170;-51
2022/11/11 03:23:15;;;;;;;9.43;5.20;;;8.00;99.90;;;;;;5073917;28;20188;-52
2022/11/11 03:25:47;;;;;;;9.18;5.10;;;7.90;99.90;;;;;;5073451;28;20653;-54
2022/11/11 03:28:15;;;;;;;9.07;5.53;;;7.90;99.90;;;;;;5073824;28;20574;-52
2022/11/11 03:30:43;;;;;;;8.23;4.65;;;8.00;99.90;;;;;;5073702;28;20176;-52
2022/11/11 03:33:09;;;;;;;6.22;4.93;;;7.90;99.90;;;;;;5073532;28;20166;-53
2022/11/11 03:35:35;;;;;;;8.15;4.60;;;9.20;99.90;;;;;;5073540;28;20641;-54
2022/11/11 03:40:47;;;;;;;8.05;4.43;;;7.70;99.90;;;;;;5073321;28;20263;-52
2022/11/11 03:43:14;;;;;;;7.85;4.68;;;7.70;99.90;;;;;;5073753;28;20257;-51
2022/11/11 03:45:41;;;;;;;9.88;6.40;;;7.70;99.90;;;;;;5073098;28;20261;-54
2022/11/11 03:48:07;;;;;;;11.23;5.63;;;7.70;99.90;;;;;;5073084;28;20163;-53
2022/11/11 03:50:33;;;;;;;11.18;5.60;;;7.70;99.90;;;;;;5072947;28;20166;-53
2022/11/11 03:52:58;;;;;;;13.30;5.75;;;7.80;99.90;;;;;;5072928;28;20284;-52
2022/11/11 03:55:25;;;;;;;8.23;5.72;;;7.70;99.90;;;;;;5088929;28;20636;-52
2022/11/11 03:57:50;;;;;;;8.38;4.93;;;7.70;99.90;;;;;;5093109;28;20169;-53
2022/11/11 04:00:27;;;;;;;9.80;5.25;;;7.70;99.90;;;;;;5092871;28;20213;-51
2022/11/11 04:11:14;;;;;;;4.80;3.80;;;7.60;99.90;;;;;;5093454;28;20235;-52
2022/11/11 04:16:26;;;;;;;5.32;3.85;;;7.60;99.90;;;;;;5092768;28;20218;-54
2022/11/11 04:21:42;;;;;;;7.65;4.95;;;7.60;99.90;;;;;;5092574;28;20211;-53
2022/11/11 04:27:03;;;;;;;10.88;5.57;;;7.60;99.90;;;;;;5092909;28;20176;-52
2022/11/11 04:29:30;;;;;;;9.80;4.90;;;7.60;99.90;;;;;;5092477;28;20165;-51
2022/11/11 04:34:58;;;;;;;9.20;4.05;;;7.60;99.90;;;;;;5092718;28;20467;-51
2022/11/11 04:37:25;;;;;;;7.53;3.72;;;7.70;99.90;;;;;;5092284;28;20161;-50
2022/11/11 04:42:36;;;;;;;22.42;13.82;;;7.70;99.90;;;;;;5092407;28;21176;-52
2022/11/11 04:48:09;;;;;;;13.57;7.22;;;7.70;99.90;;;;;;5092491;28;20730;-50
2022/11/11 04:50:37;;;;;;;14.70;4.45;;;7.70;99.90;;;;;;5092284;28;20222;-50
2022/11/11 04:53:04;;;;;;;6.28;3.17;;;7.80;99.90;;;;;;5091885;28;20201;-52
2022/11/11 04:58:18;;;;;;;7.18;3.60;;;7.80;99.90;;;;;;5092389;28;20172;-51
2022/11/11 05:00:43;;;;;;;8.00;3.97;;;7.80;99.90;;;;;;5074192;28;20228;-51
2022/11/11 05:03:22;;;;;;;6.40;3.30;;;7.80;99.90;;;;;;5091811;28;20161;-51
2022/11/11 05:08:57;;;;;;;5.63;3.88;;;7.90;99.90;;;;;;5062443;28;20227;-51
2022/11/11 05:11:28;;;;;;;7.13;3.35;;;7.80;99.90;;;;;;5091932;28;20221;-51
2022/11/11 05:22:29;;;;;;;8.77;5.00;;;7.70;99.90;;;;;;5092242;28;20264;-52
2022/11/11 05:27:40;;;;;;;9.07;5.03;;;7.70;99.90;;;;;;5092045;28;20180;-51
2022/11/11 05:30:08;;;;;;;11.00;4.88;;;7.70;99.90;;;;;;5091498;28;20169;-51
2022/11/11 05:32:33;;;;;;;8.27;5.75;;;7.70;99.90;;;;;;5091462;28;20613;-52
2022/11/11 05:34:59;;;;;;;10.48;5.65;;;7.70;99.90;;;;;;5091435;28;20177;-51
2022/11/11 05:37:24;;;;;;;8.07;5.78;;;7.70;99.90;;;;;;5091543;28;20189;-51
2022/11/11 05:39:50;;;;;;;10.77;6.63;;;7.70;99.90;;;;;;5091475;28;20169;-51
2022/11/11 05:42:16;;;;;;;9.82;6.25;;;7.70;99.90;;;;;;5091392;28;20689;-51
2022/11/11 05:44:42;;;;;;;11.00;6.00;;;7.70;99.90;;;;;;5091835;28;20208;-51
2022/11/11 05:47:07;;;;;;;8.02;5.32;;;7.70;99.90;;;;;;5073199;28;20223;-50
2022/11/11 05:49:33;;;;;;;15.55;8.05;;;7.60;99.90;;;;;;5091114;28;20165;-54
2022/11/11 05:51:59;;;;;;;10.25;5.75;;;7.70;99.90;;;;;;5090814;28;20636;-53
2022/11/11 05:54:24;;;;;;;9.32;6.05;;;7.70;99.90;;;;;;5090977;28;20161;-54
2022/11/11 05:56:50;;;;;;;7.78;4.80;;;7.70;99.90;;;;;;5090983;28;20193;-54
2022/11/11 05:59:16;;;;;;;6.90;4.65;;;7.80;99.90;;;;;;5090785;28;20213;-54
2022/11/11 06:01:42;;;;;;;5.43;3.95;;;7.90;99.90;;;;;;5091418;28;20197;-51
2022/11/11 06:04:08;;;;;;;9.15;4.68;;;7.90;99.90;;;;;;5091358;28;20158;-52
2022/11/11 06:06:34;;;;;;;7.40;4.32;;;7.80;99.90;;;;;;5091341;28;20535;-51
2022/11/11 06:09:00;;;;;;;7.88;4.60;;;7.80;99.90;;;;;;5091373;28;20162;-51
2022/11/11 06:11:26;;;;;;;8.77;4.78;;;7.70;99.90;;;;;;5091326;28;20169;-51
2022/11/11 06:13:53;;;;;;;14.35;4.97;;;7.70;99.90;;;;;;5091295;28;20168;-52
2022/11/11 06:16:18;;;;;;;8.35;5.07;;;7.60;99.90;;;;;;5091336;28;20169;-51
2022/11/11 06:18:44;;;;;;;7.10;4.20;;;7.60;99.90;;;;;;5091668;28;20608;-51
2022/11/11 06:21:10;;;;;;;10.60;4.80;;;7.60;99.90;;;;;;5094804;28;20205;-51
2022/11/11 06:23:35;;;;;;;14.93;7.25;;;7.60;99.90;;;;;;5094821;28;20165;-52
2022/11/11 06:26:13;;;;;;;28.58;10.48;;;7.50;99.90;;;;;;5094897;28;20205;-51
2022/11/11 06:28:38;;;;;;;12.90;7.40;;;7.50;99.90;;;;;;5094990;28;20188;-51
2022/11/11 06:31:06;;;;;;;16.02;7.47;;;7.50;99.90;;;;;;5094803;28;20548;-52
2022/11/11 06:33:34;;;;;;;16.88;7.20;;;7.40;99.90;;;;;;5094891;28;20581;-50
2022/11/11 06:35:59;;;;;;;24.42;11.02;;;7.40;99.90;;;;;;5094822;28;20173;-52
2022/11/11 06:38:25;;;;;;;10.18;6.18;;;7.50;99.90;;;;;;5092351;28;20200;-51
2022/11/11 06:40:50;;;;;;;15.95;6.13;;;7.50;99.90;;;;;;5093160;28;20611;-51
2022/11/11 06:43:16;;;;;;;10.68;5.85;;;7.50;99.90;;;;;;5093176;28;20170;-50
2022/11/11 06:45:42;;;;;;;17.05;8.48;;;7.50;99.90;;;;;;5093623;28;20162;-52
2022/11/11 06:48:07;;;;;;;16.20;8.52;;;7.50;99.90;;;;;;5085179;28;20180;-50
2022/11/11 06:50:33;;;;;;;20.27;9.35;;;7.50;99.90;;;;;;5073127;28;20618;-51
2022/11/11 06:53:09;;;;;;;23.38;9.73;;;7.50;99.90;;;;;;5088945;28;20651;-49
2022/11/11 06:55:35;;;;;;;21.70;10.60;;;7.50;99.90;;;;;;5072984;28;20250;-55
2022/11/11 06:58:06;;;;;;;9.60;5.65;;;7.50;99.90;;;;;;5054989;28;20579;-53
2022/11/11 07:00:32;;;;;;;8.13;5.20;;;7.50;99.90;;;;;;5072502;28;20221;-56
2022/11/11 07:02:58;;;;;;;9.77;5.65;;;7.60;99.90;;;;;;5072528;28;20174;-53
2022/11/11 07:05:23;;;;;;;38.78;17.15;;;7.60;99.90;;;;;;5072381;28;20537;-53
2022/11/11 07:07:49;;;;;;;31.75;13.77;;;7.70;99.90;;;;;;5072278;28;20194;-52
2022/11/11 07:10:16;;;;;;;12.82;6.47;;;7.70;99.90;;;;;;5073360;28;20173;-52
2022/11/11 07:12:42;;;;;;;10.23;5.75;;;7.70;99.90;;;;;;5074237;28;20185;-53
2022/11/11 07:15:08;;;;;;;9.82;5.82;;;11.40;99.90;;;;;;5073615;28;20240;-52
2022/11/11 07:17:34;;;;;;;15.93;7.22;;;7.80;99.90;;;;;;5056070;28;20170;-51
2022/11/11 07:19:59;;;;;;;16.38;7.20;;;7.80;99.90;;;;;;5073544;28;20158;-52
2022/11/11 07:22:25;;;;;;;16.42;8.07;;;7.80;99.90;;;;;;5073449;28;20629;-52
2022/11/11 07:24:50;;;;;;;13.30;5.93;;;7.90;99.90;;;;;;5073551;28;20177;-52
2022/11/11 07:27:16;;;;;;;10.35;5.50;;;7.90;99.90;;;;;;5073522;28;20174;-51
2022/11/11 07:29:42;;;;;;;12.05;5.65;;;7.90;99.90;;;;;;5055913;28;20162;-52
2022/11/11 07:32:07;;;;;;;13.70;7.57;;;7.90;99.90;;;;;;5055483;28;20177;-52
2022/11/11 07:34:33;;;;;;;13.23;7.97;;;7.90;99.90;;;;;;5073184;28;20158;-52
2022/11/11 07:36:58;;;;;;;10.13;5.18;;;8.00;99.90;;;;;;5073226;28;20664;-52
2022/11/11 07:39:24;;;;;;;11.15;5.03;;;8.00;99.90;;;;;;5077639;28;20176;-52
2022/11/11 07:41:50;;;;;;;15.43;6.53;;;8.10;99.90;;;;;;5093157;28;20208;-52
2022/11/11 07:44:15;;;;;;;12.43;4.72;;;8.20;99.90;;;;;;5093349;28;20169;-52
2022/11/11 07:46:41;;;;;;;9.43;4.85;;;8.20;99.90;;;;;;5093509;28;20165;-52
2022/11/11 07:49:07;;;;;;;44.65;16.23;;;8.30;99.90;;;;;;5093127;28;20199;-55
2022/11/11 07:51:32;;;;;;;36.78;13.00;;;8.30;99.90;;;;;;5093123;28;20222;-54
2022/11/11 07:53:58;;;;;;;26.23;9.90;;;8.40;99.90;;;;;;5093050;28;20166;-54
2022/11/11 07:56:23;;;;;;;21.88;9.77;;;8.50;99.90;;;;;;5093113;28;20165;-55
2022/11/11 07:58:49;;;;;;;7.05;4.40;;;8.60;99.90;;;;;;5093016;28;20220;-53
2022/11/11 08:01:14;;;;;;;10.65;4.75;;;8.60;99.90;;;;;;5092937;28;20201;-53
2022/11/11 08:03:48;;;;;;;12.65;6.43;;;8.70;99.90;;;;;;5093228;28;20274;-57
2022/11/11 08:06:17;;;;;;;6.88;4.55;;;8.70;99.90;;;;;;5093215;28;20624;-52
2022/11/11 08:08:42;;;;;;;13.30;6.35;;;8.80;99.90;;;;;;5093099;28;20256;-54
2022/11/11 08:11:08;;;;;;;18.77;7.82;;;8.80;99.90;;;;;;5092811;28;20197;-55
2022/11/11 08:13:39;;;;;;;16.55;7.25;;;8.80;99.90;;;;;;5092712;28;20195;-54
2022/11/11 08:16:13;;;;;;;8.07;5.45;;;8.90;99.90;;;;;;5092773;28;20162;-54
2022/11/11 08:18:39;;;;;;;18.38;8.55;;;8.90;99.90;;;;;;5092926;28;20201;-54
2022/11/11 08:21:06;;;;;;;12.68;6.68;;;8.90;99.90;;;;;;5092466;28;20231;-52
2022/11/11 08:23:32;;;;;;;14.75;7.05;;;9.10;99.90;;;;;;5092516;28;20173;-52
2022/11/11 08:26:02;;;;;;;14.57;7.63;;;9.10;99.90;;;;;;5092820;28;20169;-52
2022/11/11 08:28:29;;;;;;;10.13;6.10;;;9.10;99.90;;;;;;5092525;28;20260;-51
2022/11/11 08:30:58;;;;;;;14.43;6.22;;;9.20;99.90;;;;;;5092277;28;20216;-52
2022/11/11 08:33:24;;;;;;;10.70;6.65;;;9.10;99.90;;;;;;5092435;28;20256;-52
2022/11/11 08:35:53;;;;;;;8.43;5.68;;;9.20;99.90;;;;;;5092356;28;20635;-53
2022/11/11 08:38:19;;;;;;;11.63;6.40;;;9.20;99.90;;;;;;5092290;28;20169;-54
2022/11/11 08:40:44;;;;;;;14.60;7.03;;;9.20;99.90;;;;;;5092235;28;20201;-52
2022/11/11 08:43:10;;;;;;;13.65;6.38;;;9.30;99.90;;;;;;5091966;28;20648;-53
2022/11/11 08:45:36;;;;;;;16.48;8.35;;;9.30;99.90;;;;;;5092216;28;20527;-52
2022/11/11 08:48:01;;;;;;;11.50;7.13;;;9.40;99.90;;;;;;5092213;28;20165;-52
2022/11/11 08:50:27;;;;;;;16.63;6.90;;;9.40;99.90;;;;;;5092103;28;20153;-52
2022/11/11 08:52:52;;;;;;;13.93;7.35;;;9.40;99.90;;;;;;5092101;28;20576;-52
2022/11/11 08:55:18;;;;;;;11.60;7.10;;;9.50;99.90;;;;;;5092036;28;20196;-52
2022/11/11 08:57:44;;;;;;;15.18;7.20;;;9.60;99.90;;;;;;5092039;28;20192;-52
2022/11/11 09:00:11;;;;;;;16.17;7.65;;;9.70;99.90;;;;;;5092173;28;20579;-52
2022/11/11 09:02:38;;;;;;;16.85;8.90;;;9.70;99.90;;;;;;5092126;28;20228;-52
2022/11/11 09:05:05;;;;;;;24.05;9.27;;;9.80;99.90;;;;;;5091896;28;20189;-52
2022/11/11 09:07:31;;;;;;;18.50;9.55;;;9.90;99.90;;;;;;5092200;28;20250;-53
2022/11/11 09:09:57;;;;;;;16.13;9.50;;;9.90;99.90;;;;;;5091928;28;20578;-53
2022/11/11 09:12:22;;;;;;;20.50;8.82;;;9.90;99.90;;;;;;5091919;28;20165;-53
2022/11/11 09:14:48;;;;;;;50.97;18.15;;;10.00;99.90;;;;;;5091802;28;20168;-53
2022/11/11 09:17:15;;;;;;;27.60;11.52;;;10.00;99.90;;;;;;5091745;28;20169;-55
2022/11/11 09:19:40;;;;;;;12.57;8.05;;;10.00;99.90;;;;;;5092156;28;20173;-52
2022/11/11 09:22:06;;;;;;;30.58;13.23;;;10.10;99.90;;;;;;5091635;28;20246;-53
2022/11/11 09:24:31;;;;;;;20.13;8.07;;;10.10;99.90;;;;;;5091580;28;20161;-54
2022/11/11 09:26:57;;;;;;;17.23;8.52;;;10.10;99.90;;;;;;5091832;28;20169;-52
2022/11/11 09:29:22;;;;;;;12.93;7.28;;;10.20;99.90;;;;;;5091689;28;20659;-53
2022/11/11 09:31:48;;;;;;;15.23;6.80;;;10.20;99.90;;;;;;5091647;28;20165;-52
2022/11/11 09:34:13;;;;;;;13.68;7.18;;;10.40;99.90;;;;;;5092167;28;20170;-54
2022/11/11 09:36:39;;;;;;;12.75;7.57;;;10.50;99.90;;;;;;5091989;28;20161;-52
2022/11/11 09:39:05;;;;;;;11.80;7.13;;;10.50;99.90;;;;;;5091508;28;20180;-52
2022/11/11 09:41:49;;;;;;;12.52;7.07;;;10.60;99.90;;;;;;5091415;28;20602;-52
2022/11/11 09:44:42;;;;;;;19.48;8.00;;;10.70;99.90;;;;;;5091576;28;20625;-53
2022/11/11 09:47:22;;;;;;;14.75;7.95;;;10.80;99.90;;;;;;5091454;28;20161;-52
2022/11/11 09:50:08;;;;;;;8.93;6.78;;;10.90;99.90;;;;;;5091491;28;20166;-52
2022/11/11 09:52:53;;;;;;;21.10;9.95;;;10.90;99.90;;;;;;5091528;28;20168;-54
2022/11/11 09:55:40;;;;;;;25.17;11.07;;;11.00;99.90;;;;;;5095156;28;20180;-52
2022/11/11 09:58:19;;;;;;;52.25;22.90;;;11.10;99.90;;;;;;5095217;28;20225;-52
2022/11/11 10:00:50;;;;;;;36.85;16.55;;;11.20;99.90;;;;;;5095263;28;20201;-55
2022/11/11 10:03:20;;;;;;;40.60;18.00;;;11.20;99.90;;;;;;5095313;28;20172;-52
2022/11/11 10:05:51;;;;;;;24.40;10.60;;;11.30;99.90;;;;;;5095315;28;20169;-51
2022/11/11 10:08:31;;;;;;;28.75;14.25;;;11.30;99.90;;;;;;5094865;28;20161;-52
2022/11/11 10:10:59;;;;;;;28.45;13.10;;;11.40;99.90;;;;;;5095141;28;20169;-52
2022/11/11 10:13:29;;;;;;;22.65;11.32;;;11.40;99.90;;;;;;5095079;28;20676;-52
2022/11/11 10:16:19;;;;;;;24.27;10.57;;;11.40;99.90;;;;;;5095068;28;20177;-52
2022/11/11 10:18:54;;;;;;;41.72;16.80;;;11.60;99.90;;;;;;5094890;28;20585;-52
2022/11/11 10:21:27;;;;;;;24.92;11.13;;;11.60;99.90;;;;;;5094892;28;20203;-52
2022/11/11 10:23:59;;;;;;;11.73;7.10;;;11.60;99.90;;;;;;5094712;28;20168;-52
2022/11/11 10:26:38;;;;;;;11.88;7.25;;;11.60;99.90;;;;;;5094608;28;20158;-52
2022/11/11 10:29:09;;;;;;;14.38;8.27;;;11.70;99.90;;;;;;5094564;28;20681;-52
2022/11/11 10:31:35;;;;;;;17.60;8.70;;;11.80;99.90;;;;;;5094688;28;20200;-52
2022/11/11 10:34:10;;;;;;;15.48;6.70;;;11.90;99.90;;;;;;5094361;28;20165;-51
2022/11/11 10:36:44;;;;;;;8.88;6.60;;;11.90;99.90;;;;;;5094481;28;20176;-51
2022/11/11 10:39:16;;;;;;;13.93;8.88;;;11.90;99.90;;;;;;5095299;28;20539;-52
2022/11/11 10:41:46;;;;;;;9.95;5.97;;;11.80;99.90;;;;;;5094466;28;20193;-51
2022/11/11 10:44:19;;;;;;;14.38;8.73;;;11.80;99.90;;;;;;5077279;28;20197;-52
2022/11/11 10:47:02;;;;;;;8.32;6.18;;;11.80;99.90;;;;;;5094447;28;20675;-52
2022/11/11 10:49:32;;;;;;;10.55;6.13;;;11.90;99.90;;;;;;5094402;28;20158;-52
2022/11/11 10:52:15;;;;;;;11.73;6.90;;;11.90;99.90;;;;;;5094131;28;20163;-52
2022/11/11 10:55:26;;;;;;;10.85;6.95;;;11.90;99.90;;;;;;5094890;28;20521;-51
2022/11/11 10:57:56;;;;;;;15.10;7.00;;;11.90;99.90;;;;;;5038138;28;20629;-51
2022/11/11 11:00:22;;;;;;;10.13;5.97;;;12.00;99.90;;;;;;5093776;28;20252;-51
2022/11/11 11:02:58;;;;;;;8.57;6.15;;;12.10;99.90;;;;;;5094505;28;20197;-52
2022/11/11 11:05:36;;;;;;;7.68;5.75;;;12.20;99.90;;;;;;5093372;28;20176;-54
2022/11/11 11:08:08;;;;;;;8.18;5.03;;;12.20;99.90;;;;;;5093758;28;20169;-54
2022/11/11 11:10:55;;;;;;;6.57;5.10;;;12.20;99.90;;;;;;5094005;28;20648;-54
2022/11/11 11:13:33;;;;;;;6.22;4.88;;;12.20;99.90;;;;;;5093642;28;20707;-55
2022/11/11 11:16:05;;;;;;;11.27;4.78;;;12.20;99.90;;;;;;5093393;28;20572;-55
2022/11/11 11:18:31;;;;;;;9.23;5.30;;;12.30;99.90;;;;;;5093343;28;20516;-55
2022/11/11 11:21:05;;;;;;;9.63;5.53;;;12.30;99.90;;;;;;5093568;28;20253;-52
2022/11/11 11:23:41;;;;;;;11.68;6.00;;;12.40;99.90;;;;;;5094017;28;20180;-52
2022/11/11 11:26:08;;;;;;;8.20;5.50;;;12.40;99.90;;;;;;5093476;28;20169;-52
2022/11/11 11:28:34;;;;;;;9.13;5.20;;;12.40;99.90;;;;;;5093557;28;20165;-53
2022/11/11 11:31:06;;;;;;;8.77;4.93;;;12.50;99.90;;;;;;5093583;28;20176;-52
2022/11/11 11:33:54;;;;;;;8.40;4.70;;;12.50;99.90;;;;;;5093491;28;20161;-53
2022/11/11 11:36:20;;;;;;;9.32;4.78;;;12.60;99.90;;;;;;5093206;28;20196;-53
2022/11/11 11:38:51;;;;;;;8.18;4.97;;;12.70;99.90;;;;;;5093617;28;20534;-52
2022/11/11 11:41:49;;;;;;;10.73;5.13;;;12.70;99.90;;;;;;5093123;28;20257;-52
2022/11/11 11:44:28;;;;;;;7.85;4.80;;;12.80;99.90;;;;;;5093361;28;20522;-52
2022/11/11 11:47:05;;;;;;;8.40;4.60;;;12.80;99.90;;;;;;5093441;28;20515;-52
2022/11/11 11:50:15;;;;;;;8.40;4.75;;;12.90;99.90;;;;;;5093209;28;20166;-51
2022/11/11 11:52:46;;;;;;;7.03;4.45;;;13.00;99.90;;;;;;5093496;28;20244;-52
2022/11/11 11:55:15;;;;;;;8.07;4.18;;;13.10;99.90;;;;;;5093101;28;20210;-52
2022/11/11 11:57:54;;;;;;;6.63;5.00;;;13.10;99.90;;;;;;5093550;28;20193;-52
2022/11/11 12:00:25;;;;;;;11.27;4.88;;;13.10;99.90;;;;;;5092468;28;20249;-52
2022/11/11 12:02:59;;;;;;;7.38;4.07;;;13.10;99.90;;;;;;5092771;28;20514;-52
2022/11/11 12:05:44;;;;;;;7.72;4.38;;;13.20;99.90;;;;;;5092468;28;20183;-52
2022/11/11 12:08:12;;;;;;;7.35;4.63;;;13.30;99.90;;;;;;5093332;28;20199;-52
2022/11/11 12:10:55;;;;;;;8.80;5.32;;;13.30;99.90;;;;;;5092632;28;20177;-52
2022/11/11 12:13:42;;;;;;;7.07;4.90;;;13.30;99.90;;;;;;5092243;28;20165;-52
2022/11/11 12:16:25;;;;;;;7.25;4.28;;;13.30;99.90;;;;;;5092256;28;20522;-52
2022/11/11 12:19:19;;;;;;;7.97;3.67;;;13.30;99.90;;;;;;5092290;28;20261;-52
2022/11/11 12:22:18;;;;;;;8.52;3.60;;;13.30;99.90;;;;;;5092698;28;20265;-52
2022/11/11 12:25:09;;;;;;;8.77;4.13;;;13.40;99.90;;;;;;5092584;28;20161;-52
2022/11/11 12:27:47;;;;;;;6.10;3.83;;;13.40;99.90;;;;;;5092488;28;20173;-52
2022/11/11 12:30:30;;;;;;;8.55;3.85;;;13.50;99.90;;;;;;5092842;28;20621;-54
2022/11/11 12:33:05;;;;;;;7.80;3.40;;;13.60;99.90;;;;;;5092199;28;20645;-53
2022/11/11 12:35:55;;;;;;;5.43;3.25;;;13.60;99.90;;;;;;5092724;28;20221;-52
2022/11/11 12:38:39;;;;;;;7.03;3.17;;;13.70;99.90;;;;;;5092466;28;20661;-52
2022/11/11 12:41:28;;;;;;;6.90;3.67;;;13.60;99.90;;;;;;5092377;28;20559;-52
2022/11/11 12:44:12;;;;;;;7.85;3.70;;;13.70;99.90;;;;;;5092351;28;20252;-52
2022/11/11 12:47:01;;;;;;;6.70;3.72;;;13.80;99.90;;;;;;5092340;28;20169;-52
2022/11/11 12:49:36;;;;;;;8.85;4.65;;;13.80;99.90;;;;;;5092206;28;20162;-52
2022/11/11 12:52:11;;;;;;;7.30;4.65;;;13.90;99.90;;;;;;5092212;28;20176;-54
2022/11/11 12:55:19;;;;;;;11.23;4.05;;;13.80;99.90;;;;;;5091988;28;20168;-52
2022/11/11 12:58:03;;;;;;;8.07;3.47;;;13.80;99.90;;;;;;5043176;28;20256;-52
2022/11/11 13:00:29;;;;;;;7.03;4.10;;;13.80;99.90;;;;;;5090244;28;20219;-52
2022/11/11 13:03:15;;;;;;;5.95;3.30;;;13.90;99.90;;;;;;5091201;28;20181;-52
2022/11/11 13:05:59;;;;;;;16.27;14.60;;;16.30;99.90;;;;;;5090978;28;20635;-52
2022/11/11 13:08:46;;;;;;;6.10;3.63;;;13.90;99.90;;;;;;5090987;28;20184;-52
2022/11/11 13:11:31;;;;;;;7.93;3.65;;;13.90;99.90;;;;;;5072007;28;20178;-52
2022/11/11 13:14:07;;;;;;;9.88;5.15;;;13.80;99.90;;;;;;5071564;28;20162;-52
2022/11/11 13:16:32;;;;;;;9.27;4.05;;;13.80;99.90;;;;;;5070036;28;20166;-52
2022/11/11 13:19:17;;;;;;;9.20;5.85;;;13.90;99.90;;;;;;5069870;28;20169;-52
2022/11/11 13:21:56;;;;;;;15.52;7.28;;;13.80;99.90;;;;;;5070179;28;20205;-52
2022/11/11 13:24:23;;;;;;;10.40;5.75;;;13.80;99.90;;;;;;5070074;28;20608;-51
2022/11/11 13:26:56;;;;;;;9.43;3.97;;;13.80;99.90;;;;;;5069934;28;20185;-52
2022/11/11 13:29:48;;;;;;;20.67;10.32;;;13.70;99.90;;;;;;5073050;28;20169;-52
2022/11/11 13:32:16;;;;;;;10.23;5.68;;;13.70;99.90;;;;;;5075448;28;20193;-52
2022/11/11 13:34:42;;;;;;;11.93;5.82;;;13.70;99.90;;;;;;5075663;28;20534;-52
2022/11/11 13:37:27;;;;;;;10.07;4.90;;;13.70;99.90;;;;;;5074295;28;20248;-52
2022/11/11 13:40:08;;;;;;;16.40;7.50;;;13.70;99.90;;;;;;5073895;28;20193;-52
2022/11/11 13:42:45;;;;;;;27.30;14.13;;;13.60;99.90;;;;;;5074110;28;20209;-52
2022/11/11 13:45:26;;;;;;;16.48;7.97;;;13.60;99.90;;;;;;5074993;28;20566;-52
2022/11/11 13:47:53;;;;;;;8.50;3.95;;;13.60;99.90;;;;;;5074622;28;20168;-52
2022/11/11 13:50:34;;;;;;;6.75;3.20;;;13.60;99.90;;;;;;5073885;28;20162;-52
2022/11/11 13:53:02;;;;;;;9.55;5.18;;;13.50;99.90;;;;;;5074241;28;20531;-51
2022/11/11 13:55:39;;;;;;;10.90;5.30;;;13.50;99.90;;;;;;5073280;28;20185;-52
2022/11/11 13:58:16;;;;;;;8.05;5.32;;;13.40;99.90;;;;;;5074938;28;20174;-51
2022/11/11 14:00:42;;;;;;;4.38;3.40;;;13.50;99.90;;;;;;5035557;28;20219;-51
2022/11/11 14:03:17;;;;;;;6.30;3.25;;;13.50;99.90;;;;;;5035039;28;20221;-52
2022/11/11 14:05:43;;;;;;;9.15;5.05;;;13.50;99.90;;;;;;5034981;28;20166;-52
2022/11/11 14:08:09;;;;;;;10.65;4.95;;;13.80;99.90;;;;;;5035221;28;20631;-52
2022/11/11 14:10:34;;;;;;;8.55;5.70;;;13.50;99.90;;;;;;5034501;28;20202;-51
2022/11/11 14:13:24;;;;;;;13.77;8.65;;;13.60;99.90;;;;;;5032986;28;20226;-52
2022/11/11 14:15:53;;;;;;;18.48;10.52;;;13.50;99.90;;;;;;5033711;28;20167;-52
2022/11/11 14:18:19;;;;;;;7.65;4.75;;;13.50;99.90;;;;;;5034718;28;20159;-51